sensor_id;sensor_type;location;lat;lon;timestamp;P1;durP1;ratioP1;P2;durP2;ratioP2
43088;SDS011;28709;52.030;5.652;2023-03-13T00:01:09;25.50;;;4.00;;
43088;SDS011;28709;52.030;5.652;2023-03-13T00:03:40;26.40;;;4.78;;
43088;SDS011;28709;52.030;5.652;2023-03-13T00:06:06;22.45;;;4.47;;
43088;SDS011;28709;52.030;5.652;2023-03-13T00:08:32;26.58;;;4.47;;
43088;SDS011;28709;52.030;5.652;2023-03-13T00:11:00;24.88;;;4.25;;
43088;SDS011;28709;52.030;5.652;2023-03-13T00:13:27;18.25;;;3.80;;
43088;SDS011;28709;52.030;5.652;2023-03-13T00:16:00;28.70;;;4.32;;
43088;SDS011;28709;52.030;5.652;2023-03-13T00:18:35;20.95;;;4.57;;
43088;SDS011;28709;52.030;5.652;2023-03-13T00:21:06;26.63;;;4.50;;
43088;SDS011;28709;52.030;5.652;2023-03-13T00:23:33;23.00;;;3.80;;
43088;SDS011;28709;52.030;5.652;2023-03-13T00:26:02;31.40;;;4.70;;
43088;SDS011;28709;52.030;5.652;2023-03-13T00:28:30;16.65;;;3.83;;
43088;SDS011;28709;52.030;5.652;2023-03-13T00:31:04;18.02;;;3.72;;
43088;SDS011;28709;52.030;5.652;2023-03-13T00:33:33;25.92;;;4.25;;
43088;SDS011;28709;52.030;5.652;2023-03-13T00:36:00;20.23;;;3.85;;
43088;SDS011;28709;52.030;5.652;2023-03-13T00:38:28;27.17;;;4.07;;
43088;SDS011;28709;52.030;5.652;2023-03-13T00:40:57;27.13;;;5.30;;
43088;SDS011;28709;52.030;5.652;2023-03-13T00:43:28;32.42;;;4.55;;
43088;SDS011;28709;52.030;5.652;2023-03-13T00:45:54;32.05;;;4.40;;
43088;SDS011;28709;52.030;5.652;2023-03-13T00:48:20;27.40;;;5.13;;
43088;SDS011;28709;52.030;5.652;2023-03-13T00:50:46;25.50;;;5.10;;
43088;SDS011;28709;52.030;5.652;2023-03-13T00:53:11;23.25;;;4.70;;
43088;SDS011;28709;52.030;5.652;2023-03-13T00:55:37;27.10;;;4.22;;
43088;SDS011;28709;52.030;5.652;2023-03-13T00:58:03;20.90;;;4.13;;
43088;SDS011;28709;52.030;5.652;2023-03-13T01:00:28;11.70;;;3.45;;
43088;SDS011;28709;52.030;5.652;2023-03-13T01:02:54;28.70;;;4.18;;
43088;SDS011;28709;52.030;5.652;2023-03-13T01:05:20;20.40;;;3.97;;
43088;SDS011;28709;52.030;5.652;2023-03-13T01:07:45;27.50;;;4.28;;
43088;SDS011;28709;52.030;5.652;2023-03-13T01:10:11;17.33;;;3.65;;
43088;SDS011;28709;52.030;5.652;2023-03-13T01:12:36;28.45;;;4.30;;
43088;SDS011;28709;52.030;5.652;2023-03-13T01:15:02;19.45;;;4.50;;
43088;SDS011;28709;52.030;5.652;2023-03-13T01:17:28;24.77;;;4.25;;
43088;SDS011;28709;52.030;5.652;2023-03-13T01:19:55;23.25;;;4.03;;
43088;SDS011;28709;52.030;5.652;2023-03-13T01:22:21;29.60;;;5.07;;
43088;SDS011;28709;52.030;5.652;2023-03-13T01:24:47;19.48;;;4.03;;
43088;SDS011;28709;52.030;5.652;2023-03-13T01:27:16;25.77;;;4.10;;
43088;SDS011;28709;52.030;5.652;2023-03-13T01:29:42;23.70;;;3.88;;
43088;SDS011;28709;52.030;5.652;2023-03-13T01:32:08;19.33;;;3.95;;
43088;SDS011;28709;52.030;5.652;2023-03-13T01:34:33;22.42;;;4.40;;
43088;SDS011;28709;52.030;5.652;2023-03-13T01:36:59;27.08;;;4.50;;
43088;SDS011;28709;52.030;5.652;2023-03-13T01:39:25;16.20;;;3.88;;
43088;SDS011;28709;52.030;5.652;2023-03-13T01:41:51;16.48;;;3.00;;
43088;SDS011;28709;52.030;5.652;2023-03-13T01:44:23;20.20;;;4.53;;
43088;SDS011;28709;52.030;5.652;2023-03-13T01:46:50;15.82;;;3.53;;
43088;SDS011;28709;52.030;5.652;2023-03-13T01:49:29;17.83;;;4.38;;
43088;SDS011;28709;52.030;5.652;2023-03-13T01:51:58;17.85;;;3.63;;
43088;SDS011;28709;52.030;5.652;2023-03-13T01:57:39;19.00;;;4.97;;
43088;SDS011;28709;52.030;5.652;2023-03-13T02:00:10;14.77;;;4.03;;
43088;SDS011;28709;52.030;5.652;2023-03-13T02:02:41;19.02;;;3.60;;
43088;SDS011;28709;52.030;5.652;2023-03-13T02:05:10;14.70;;;3.58;;
43088;SDS011;28709;52.030;5.652;2023-03-13T02:07:44;12.90;;;3.58;;
43088;SDS011;28709;52.030;5.652;2023-03-13T02:10:16;16.80;;;3.35;;
43088;SDS011;28709;52.030;5.652;2023-03-13T02:12:43;13.65;;;3.05;;
43088;SDS011;28709;52.030;5.652;2023-03-13T02:15:19;13.07;;;3.42;;
43088;SDS011;28709;52.030;5.652;2023-03-13T02:17:47;10.38;;;3.47;;
43088;SDS011;28709;52.030;5.652;2023-03-13T02:20:14;11.32;;;3.13;;
43088;SDS011;28709;52.030;5.652;2023-03-13T02:22:59;12.18;;;2.95;;
43088;SDS011;28709;52.030;5.652;2023-03-13T02:25:43;12.20;;;2.90;;
43088;SDS011;28709;52.030;5.652;2023-03-13T02:28:14;13.48;;;3.45;;
43088;SDS011;28709;52.030;5.652;2023-03-13T02:30:42;13.65;;;3.15;;
43088;SDS011;28709;52.030;5.652;2023-03-13T02:33:09;9.00;;;2.75;;
43088;SDS011;28709;52.030;5.652;2023-03-13T02:35:36;10.63;;;2.92;;
43088;SDS011;28709;52.030;5.652;2023-03-13T02:38:03;7.00;;;2.80;;
43088;SDS011;28709;52.030;5.652;2023-03-13T02:40:36;11.25;;;2.92;;
43088;SDS011;28709;52.030;5.652;2023-03-13T02:43:06;15.57;;;3.83;;
43088;SDS011;28709;52.030;5.652;2023-03-13T02:45:36;18.02;;;3.35;;
43088;SDS011;28709;52.030;5.652;2023-03-13T02:48:02;7.93;;;3.25;;
43088;SDS011;28709;52.030;5.652;2023-03-13T02:50:27;10.82;;;3.20;;
43088;SDS011;28709;52.030;5.652;2023-03-13T02:52:55;11.88;;;3.17;;
43088;SDS011;28709;52.030;5.652;2023-03-13T02:55:26;9.32;;;3.63;;
43088;SDS011;28709;52.030;5.652;2023-03-13T02:57:55;14.52;;;3.63;;
43088;SDS011;28709;52.030;5.652;2023-03-13T03:00:20;12.52;;;4.47;;
43088;SDS011;28709;52.030;5.652;2023-03-13T03:02:52;9.23;;;3.28;;
43088;SDS011;28709;52.030;5.652;2023-03-13T03:05:18;8.13;;;3.10;;
43088;SDS011;28709;52.030;5.652;2023-03-13T03:07:44;9.88;;;3.70;;
43088;SDS011;28709;52.030;5.652;2023-03-13T03:10:10;10.25;;;4.22;;
43088;SDS011;28709;52.030;5.652;2023-03-13T03:12:36;7.95;;;3.35;;
43088;SDS011;28709;52.030;5.652;2023-03-13T03:15:02;9.90;;;4.28;;
43088;SDS011;28709;52.030;5.652;2023-03-13T03:17:29;12.25;;;4.10;;
43088;SDS011;28709;52.030;5.652;2023-03-13T03:19:54;13.13;;;4.47;;
43088;SDS011;28709;52.030;5.652;2023-03-13T03:22:20;10.77;;;4.20;;
43088;SDS011;28709;52.030;5.652;2023-03-13T03:24:46;12.70;;;4.95;;
43088;SDS011;28709;52.030;5.652;2023-03-13T03:27:12;15.15;;;5.38;;
43088;SDS011;28709;52.030;5.652;2023-03-13T03:29:38;12.13;;;5.15;;
43088;SDS011;28709;52.030;5.652;2023-03-13T03:32:03;11.95;;;4.85;;
43088;SDS011;28709;52.030;5.652;2023-03-13T03:34:29;12.02;;;5.82;;
43088;SDS011;28709;52.030;5.652;2023-03-13T03:36:55;13.60;;;6.20;;
43088;SDS011;28709;52.030;5.652;2023-03-13T03:39:20;13.10;;;5.60;;
43088;SDS011;28709;52.030;5.652;2023-03-13T03:41:46;15.43;;;6.20;;
43088;SDS011;28709;52.030;5.652;2023-03-13T03:44:12;18.23;;;6.03;;
43088;SDS011;28709;52.030;5.652;2023-03-13T03:46:37;11.27;;;5.70;;
43088;SDS011;28709;52.030;5.652;2023-03-13T03:49:03;10.98;;;4.80;;
43088;SDS011;28709;52.030;5.652;2023-03-13T03:51:29;9.40;;;5.70;;
43088;SDS011;28709;52.030;5.652;2023-03-13T03:53:54;13.02;;;5.60;;
43088;SDS011;28709;52.030;5.652;2023-03-13T03:56:20;10.02;;;5.75;;
43088;SDS011;28709;52.030;5.652;2023-03-13T03:58:45;10.85;;;5.88;;
43088;SDS011;28709;52.030;5.652;2023-03-13T04:01:11;11.13;;;5.78;;
43088;SDS011;28709;52.030;5.652;2023-03-13T04:03:37;11.52;;;6.30;;
43088;SDS011;28709;52.030;5.652;2023-03-13T04:06:02;10.68;;;5.80;;
43088;SDS011;28709;52.030;5.652;2023-03-13T04:08:29;8.95;;;5.72;;
43088;SDS011;28709;52.030;5.652;2023-03-13T04:10:54;9.25;;;6.78;;
43088;SDS011;28709;52.030;5.652;2023-03-13T04:13:20;12.27;;;5.82;;
43088;SDS011;28709;52.030;5.652;2023-03-13T04:15:46;11.73;;;6.38;;
43088;SDS011;28709;52.030;5.652;2023-03-13T04:18:12;11.45;;;5.55;;
43088;SDS011;28709;52.030;5.652;2023-03-13T04:20:38;6.53;;;5.07;;
43088;SDS011;28709;52.030;5.652;2023-03-13T04:23:04;10.18;;;5.85;;
43088;SDS011;28709;52.030;5.652;2023-03-13T04:25:29;7.43;;;5.30;;
43088;SDS011;28709;52.030;5.652;2023-03-13T04:27:55;15.32;;;6.95;;
43088;SDS011;28709;52.030;5.652;2023-03-13T04:30:21;9.45;;;5.55;;
43088;SDS011;28709;52.030;5.652;2023-03-13T04:32:46;10.80;;;6.28;;
43088;SDS011;28709;52.030;5.652;2023-03-13T04:35:12;7.88;;;5.35;;
43088;SDS011;28709;52.030;5.652;2023-03-13T04:37:38;11.45;;;5.80;;
43088;SDS011;28709;52.030;5.652;2023-03-13T04:40:03;11.93;;;5.75;;
43088;SDS011;28709;52.030;5.652;2023-03-13T04:42:29;10.65;;;5.85;;
43088;SDS011;28709;52.030;5.652;2023-03-13T04:44:55;10.90;;;6.07;;
43088;SDS011;28709;52.030;5.652;2023-03-13T04:47:21;10.30;;;5.95;;
43088;SDS011;28709;52.030;5.652;2023-03-13T04:49:46;11.60;;;6.40;;
43088;SDS011;28709;52.030;5.652;2023-03-13T04:52:12;10.40;;;5.93;;
43088;SDS011;28709;52.030;5.652;2023-03-13T04:54:38;8.07;;;5.28;;
43088;SDS011;28709;52.030;5.652;2023-03-13T04:57:03;11.15;;;5.60;;
43088;SDS011;28709;52.030;5.652;2023-03-13T04:59:29;11.65;;;5.13;;
43088;SDS011;28709;52.030;5.652;2023-03-13T05:01:54;6.13;;;4.72;;
43088;SDS011;28709;52.030;5.652;2023-03-13T05:04:20;10.68;;;5.68;;
43088;SDS011;28709;52.030;5.652;2023-03-13T05:06:46;10.73;;;6.00;;
43088;SDS011;28709;52.030;5.652;2023-03-13T05:09:11;6.78;;;4.60;;
43088;SDS011;28709;52.030;5.652;2023-03-13T05:11:37;6.85;;;5.47;;
43088;SDS011;28709;52.030;5.652;2023-03-13T05:14:04;10.43;;;5.03;;
43088;SDS011;28709;52.030;5.652;2023-03-13T05:16:30;8.07;;;4.65;;
43088;SDS011;28709;52.030;5.652;2023-03-13T05:18:55;9.98;;;4.90;;
43088;SDS011;28709;52.030;5.652;2023-03-13T05:21:21;7.43;;;4.28;;
43088;SDS011;28709;52.030;5.652;2023-03-13T05:23:46;9.60;;;4.55;;
43088;SDS011;28709;52.030;5.652;2023-03-13T05:26:12;10.07;;;4.22;;
43088;SDS011;28709;52.030;5.652;2023-03-13T05:28:38;10.25;;;4.65;;
43088;SDS011;28709;52.030;5.652;2023-03-13T05:31:03;10.52;;;4.93;;
43088;SDS011;28709;52.030;5.652;2023-03-13T05:33:29;8.82;;;3.83;;
43088;SDS011;28709;52.030;5.652;2023-03-13T05:35:55;11.82;;;4.00;;
43088;SDS011;28709;52.030;5.652;2023-03-13T05:38:20;6.10;;;3.40;;
43088;SDS011;28709;52.030;5.652;2023-03-13T05:40:46;13.80;;;3.88;;
43088;SDS011;28709;52.030;5.652;2023-03-13T05:43:11;9.27;;;2.85;;
43088;SDS011;28709;52.030;5.652;2023-03-13T05:45:37;10.13;;;3.40;;
43088;SDS011;28709;52.030;5.652;2023-03-13T05:48:03;7.65;;;3.17;;
43088;SDS011;28709;52.030;5.652;2023-03-13T05:50:29;4.70;;;2.65;;
43088;SDS011;28709;52.030;5.652;2023-03-13T05:52:54;10.63;;;3.42;;
43088;SDS011;28709;52.030;5.652;2023-03-13T05:55:20;10.55;;;3.33;;
43088;SDS011;28709;52.030;5.652;2023-03-13T05:57:46;6.65;;;2.72;;
43088;SDS011;28709;52.030;5.652;2023-03-13T06:00:13;8.15;;;2.67;;
43088;SDS011;28709;52.030;5.652;2023-03-13T06:02:40;11.32;;;3.17;;
43088;SDS011;28709;52.030;5.652;2023-03-13T06:05:06;6.75;;;2.85;;
43088;SDS011;28709;52.030;5.652;2023-03-13T06:07:31;7.70;;;2.78;;
43088;SDS011;28709;52.030;5.652;2023-03-13T06:09:57;7.47;;;2.70;;
43088;SDS011;28709;52.030;5.652;2023-03-13T06:12:23;5.22;;;2.63;;
43088;SDS011;28709;52.030;5.652;2023-03-13T06:14:48;6.35;;;2.90;;
43088;SDS011;28709;52.030;5.652;2023-03-13T06:17:14;9.45;;;3.10;;
43088;SDS011;28709;52.030;5.652;2023-03-13T06:19:40;7.25;;;2.92;;
43088;SDS011;28709;52.030;5.652;2023-03-13T06:22:05;10.23;;;2.63;;
43088;SDS011;28709;52.030;5.652;2023-03-13T06:24:31;11.20;;;2.60;;
43088;SDS011;28709;52.030;5.652;2023-03-13T06:26:57;7.85;;;2.88;;
43088;SDS011;28709;52.030;5.652;2023-03-13T06:29:22;5.97;;;2.97;;
43088;SDS011;28709;52.030;5.652;2023-03-13T06:31:49;6.38;;;3.13;;
43088;SDS011;28709;52.030;5.652;2023-03-13T06:34:15;9.68;;;2.70;;
43088;SDS011;28709;52.030;5.652;2023-03-13T06:36:41;9.60;;;2.60;;
43088;SDS011;28709;52.030;5.652;2023-03-13T06:39:07;7.53;;;2.95;;
43088;SDS011;28709;52.030;5.652;2023-03-13T06:41:33;6.68;;;3.05;;
43088;SDS011;28709;52.030;5.652;2023-03-13T06:43:59;9.00;;;2.72;;
43088;SDS011;28709;52.030;5.652;2023-03-13T06:46:24;10.07;;;2.55;;
43088;SDS011;28709;52.030;5.652;2023-03-13T06:48:50;6.45;;;2.70;;
43088;SDS011;28709;52.030;5.652;2023-03-13T06:51:17;10.35;;;2.80;;
43088;SDS011;28709;52.030;5.652;2023-03-13T06:53:44;6.65;;;2.42;;
43088;SDS011;28709;52.030;5.652;2023-03-13T06:56:10;8.18;;;2.60;;
43088;SDS011;28709;52.030;5.652;2023-03-13T06:58:36;7.95;;;2.30;;
43088;SDS011;28709;52.030;5.652;2023-03-13T07:01:05;10.32;;;2.85;;
43088;SDS011;28709;52.030;5.652;2023-03-13T07:03:32;5.70;;;2.20;;
43088;SDS011;28709;52.030;5.652;2023-03-13T07:05:58;7.43;;;2.08;;
43088;SDS011;28709;52.030;5.652;2023-03-13T07:08:24;12.70;;;2.28;;
43088;SDS011;28709;52.030;5.652;2023-03-13T07:10:51;8.70;;;2.75;;
43088;SDS011;28709;52.030;5.652;2023-03-13T07:13:18;8.68;;;2.50;;
43088;SDS011;28709;52.030;5.652;2023-03-13T07:15:45;8.10;;;2.63;;
43088;SDS011;28709;52.030;5.652;2023-03-13T07:18:12;6.45;;;1.73;;
43088;SDS011;28709;52.030;5.652;2023-03-13T07:20:38;8.50;;;2.33;;
43088;SDS011;28709;52.030;5.652;2023-03-13T07:23:03;9.50;;;2.30;;
43088;SDS011;28709;52.030;5.652;2023-03-13T07:25:29;11.63;;;3.33;;
43088;SDS011;28709;52.030;5.652;2023-03-13T07:27:55;13.90;;;2.90;;
43088;SDS011;28709;52.030;5.652;2023-03-13T07:30:20;7.63;;;2.05;;
43088;SDS011;28709;52.030;5.652;2023-03-13T07:32:46;11.18;;;2.50;;
43088;SDS011;28709;52.030;5.652;2023-03-13T07:35:12;9.95;;;2.60;;
43088;SDS011;28709;52.030;5.652;2023-03-13T07:37:38;5.20;;;3.05;;
43088;SDS011;28709;52.030;5.652;2023-03-13T07:40:03;6.82;;;2.22;;
43088;SDS011;28709;52.030;5.652;2023-03-13T07:42:29;10.38;;;2.70;;
43088;SDS011;28709;52.030;5.652;2023-03-13T07:44:55;11.18;;;2.38;;
43088;SDS011;28709;52.030;5.652;2023-03-13T07:47:21;9.40;;;2.13;;
43088;SDS011;28709;52.030;5.652;2023-03-13T07:49:46;8.77;;;2.35;;
43088;SDS011;28709;52.030;5.652;2023-03-13T07:52:12;11.80;;;2.67;;
43088;SDS011;28709;52.030;5.652;2023-03-13T07:54:37;10.25;;;2.50;;
43088;SDS011;28709;52.030;5.652;2023-03-13T07:57:03;10.27;;;2.88;;
43088;SDS011;28709;52.030;5.652;2023-03-13T07:59:29;9.07;;;2.30;;
43088;SDS011;28709;52.030;5.652;2023-03-13T08:01:55;7.38;;;2.42;;
43088;SDS011;28709;52.030;5.652;2023-03-13T08:04:20;8.40;;;2.50;;
43088;SDS011;28709;52.030;5.652;2023-03-13T08:06:46;10.57;;;3.13;;
43088;SDS011;28709;52.030;5.652;2023-03-13T08:09:12;13.32;;;3.67;;
43088;SDS011;28709;52.030;5.652;2023-03-13T08:11:38;9.35;;;2.40;;
43088;SDS011;28709;52.030;5.652;2023-03-13T08:14:08;10.18;;;2.20;;
43088;SDS011;28709;52.030;5.652;2023-03-13T08:16:34;7.80;;;2.55;;
43088;SDS011;28709;52.030;5.652;2023-03-13T08:19:00;6.63;;;2.30;;
43088;SDS011;28709;52.030;5.652;2023-03-13T08:21:31;7.47;;;2.63;;
43088;SDS011;28709;52.030;5.652;2023-03-13T08:24:00;6.85;;;2.10;;
43088;SDS011;28709;52.030;5.652;2023-03-13T08:26:29;6.88;;;1.92;;
43088;SDS011;28709;52.030;5.652;2023-03-13T08:28:56;3.63;;;1.98;;
43088;SDS011;28709;52.030;5.652;2023-03-13T08:31:28;9.68;;;2.90;;
43088;SDS011;28709;52.030;5.652;2023-03-13T08:33:55;5.15;;;2.05;;
43088;SDS011;28709;52.030;5.652;2023-03-13T08:36:21;3.92;;;1.60;;
43088;SDS011;28709;52.030;5.652;2023-03-13T08:38:49;10.88;;;2.83;;
43088;SDS011;28709;52.030;5.652;2023-03-13T08:41:16;4.38;;;1.65;;
43088;SDS011;28709;52.030;5.652;2023-03-13T08:43:44;8.02;;;2.08;;
43088;SDS011;28709;52.030;5.652;2023-03-13T08:46:10;4.53;;;1.88;;
43088;SDS011;28709;52.030;5.652;2023-03-13T08:48:35;6.25;;;2.10;;
43088;SDS011;28709;52.030;5.652;2023-03-13T08:51:11;3.65;;;1.40;;
43088;SDS011;28709;52.030;5.652;2023-03-13T08:53:39;6.15;;;1.75;;
43088;SDS011;28709;52.030;5.652;2023-03-13T08:56:07;4.68;;;1.85;;
43088;SDS011;28709;52.030;5.652;2023-03-13T08:58:34;11.55;;;2.53;;
43088;SDS011;28709;52.030;5.652;2023-03-13T09:01:00;6.95;;;1.90;;
43088;SDS011;28709;52.030;5.652;2023-03-13T09:03:27;4.28;;;1.27;;
43088;SDS011;28709;52.030;5.652;2023-03-13T09:05:53;6.10;;;1.67;;
43088;SDS011;28709;52.030;5.652;2023-03-13T09:08:21;5.95;;;1.50;;
43088;SDS011;28709;52.030;5.652;2023-03-13T09:10:46;5.93;;;2.08;;
43088;SDS011;28709;52.030;5.652;2023-03-13T09:13:12;7.38;;;1.40;;
43088;SDS011;28709;52.030;5.652;2023-03-13T09:15:37;6.57;;;1.55;;
43088;SDS011;28709;52.030;5.652;2023-03-13T09:18:03;7.85;;;1.33;;
43088;SDS011;28709;52.030;5.652;2023-03-13T09:20:30;9.65;;;1.92;;
43088;SDS011;28709;52.030;5.652;2023-03-13T09:22:55;6.50;;;1.88;;
43088;SDS011;28709;52.030;5.652;2023-03-13T09:25:21;5.40;;;1.30;;
43088;SDS011;28709;52.030;5.652;2023-03-13T09:27:47;5.18;;;1.27;;
43088;SDS011;28709;52.030;5.652;2023-03-13T09:30:12;5.95;;;1.52;;
43088;SDS011;28709;52.030;5.652;2023-03-13T09:32:38;6.90;;;1.42;;
43088;SDS011;28709;52.030;5.652;2023-03-13T09:35:04;5.18;;;1.40;;
43088;SDS011;28709;52.030;5.652;2023-03-13T09:37:30;5.75;;;1.25;;
43088;SDS011;28709;52.030;5.652;2023-03-13T09:39:55;4.68;;;1.10;;
43088;SDS011;28709;52.030;5.652;2023-03-13T09:45:39;4.25;;;1.20;;
43088;SDS011;28709;52.030;5.652;2023-03-13T09:48:09;4.07;;;1.10;;
43088;SDS011;28709;52.030;5.652;2023-03-13T09:50:57;2.35;;;1.10;;
43088;SDS011;28709;52.030;5.652;2023-03-13T09:56:02;6.53;;;1.20;;
43088;SDS011;28709;52.030;5.652;2023-03-13T09:58:32;5.32;;;1.30;;
43088;SDS011;28709;52.030;5.652;2023-03-13T10:01:04;4.47;;;1.33;;
43088;SDS011;28709;52.030;5.652;2023-03-13T10:03:30;4.82;;;1.40;;
43088;SDS011;28709;52.030;5.652;2023-03-13T10:06:11;5.28;;;1.23;;
43088;SDS011;28709;52.030;5.652;2023-03-13T10:08:45;5.80;;;1.30;;
43088;SDS011;28709;52.030;5.652;2023-03-13T10:11:11;11.75;;;1.50;;
43088;SDS011;28709;52.030;5.652;2023-03-13T10:13:53;3.35;;;1.10;;
43088;SDS011;28709;52.030;5.652;2023-03-13T10:16:33;5.72;;;1.60;;
43088;SDS011;28709;52.030;5.652;2023-03-13T10:19:11;5.07;;;1.45;;
43088;SDS011;28709;52.030;5.652;2023-03-13T10:21:40;2.10;;;1.10;;
43088;SDS011;28709;52.030;5.652;2023-03-13T10:24:13;4.07;;;1.17;;
43088;SDS011;28709;52.030;5.652;2023-03-13T10:26:57;7.45;;;1.85;;
43088;SDS011;28709;52.030;5.652;2023-03-13T10:29:24;7.20;;;1.20;;
43088;SDS011;28709;52.030;5.652;2023-03-13T10:31:55;7.55;;;1.60;;
43088;SDS011;28709;52.030;5.652;2023-03-13T10:34:24;4.28;;;1.38;;
43088;SDS011;28709;52.030;5.652;2023-03-13T10:36:56;3.00;;;1.27;;
43088;SDS011;28709;52.030;5.652;2023-03-13T10:39:24;3.58;;;0.90;;
43088;SDS011;28709;52.030;5.652;2023-03-13T10:41:55;4.85;;;1.13;;
43088;SDS011;28709;52.030;5.652;2023-03-13T10:44:42;6.45;;;1.40;;
43088;SDS011;28709;52.030;5.652;2023-03-13T10:47:10;5.13;;;1.35;;
43088;SDS011;28709;52.030;5.652;2023-03-13T10:49:45;6.03;;;1.33;;
43088;SDS011;28709;52.030;5.652;2023-03-13T10:52:26;4.57;;;1.20;;
43088;SDS011;28709;52.030;5.652;2023-03-13T10:55:10;4.95;;;1.13;;
43088;SDS011;28709;52.030;5.652;2023-03-13T10:57:37;7.60;;;1.13;;
43088;SDS011;28709;52.030;5.652;2023-03-13T11:02:58;5.82;;;1.55;;
43088;SDS011;28709;52.030;5.652;2023-03-13T11:05:29;4.35;;;0.90;;
43088;SDS011;28709;52.030;5.652;2023-03-13T11:08:09;3.30;;;1.13;;
43088;SDS011;28709;52.030;5.652;2023-03-13T11:10:51;2.92;;;1.08;;
43088;SDS011;28709;52.030;5.652;2023-03-13T11:24:26;2.15;;;1.00;;
43088;SDS011;28709;52.030;5.652;2023-03-13T11:27:27;4.43;;;1.02;;
43088;SDS011;28709;52.030;5.652;2023-03-13T11:32:59;4.13;;;1.42;;
43088;SDS011;28709;52.030;5.652;2023-03-13T11:35:36;4.68;;;1.27;;
43088;SDS011;28709;52.030;5.652;2023-03-13T11:38:06;4.47;;;1.40;;
43088;SDS011;28709;52.030;5.652;2023-03-13T11:46:07;2.03;;;1.05;;
43088;SDS011;28709;52.030;5.652;2023-03-13T11:56:42;3.20;;;1.08;;
43088;SDS011;28709;52.030;5.652;2023-03-13T12:02:05;4.13;;;0.95;;
43088;SDS011;28709;52.030;5.652;2023-03-13T12:04:44;4.78;;;1.25;;
43088;SDS011;28709;52.030;5.652;2023-03-13T12:09:50;2.03;;;0.70;;
43088;SDS011;28709;52.030;5.652;2023-03-13T12:25:50;7.40;;;1.55;;
43088;SDS011;28709;52.030;5.652;2023-03-13T12:31:17;3.45;;;0.90;;
43088;SDS011;28709;52.030;5.652;2023-03-13T12:33:47;6.60;;;1.00;;
43088;SDS011;28709;52.030;5.652;2023-03-13T12:37:05;3.03;;;0.88;;
43088;SDS011;28709;52.030;5.652;2023-03-13T12:45:06;8.25;;;2.13;;
43088;SDS011;28709;52.030;5.652;2023-03-13T12:47:34;5.03;;;1.20;;
43088;SDS011;28709;52.030;5.652;2023-03-13T12:50:29;10.18;;;1.58;;
43088;SDS011;28709;52.030;5.652;2023-03-13T12:53:29;8.35;;;1.80;;
43088;SDS011;28709;52.030;5.652;2023-03-13T12:56:02;3.72;;;1.02;;
43088;SDS011;28709;52.030;5.652;2023-03-13T13:03:50;3.55;;;1.20;;
43088;SDS011;28709;52.030;5.652;2023-03-13T13:06:19;7.30;;;1.50;;
43088;SDS011;28709;52.030;5.652;2023-03-13T13:14:21;5.40;;;1.10;;
43088;SDS011;28709;52.030;5.652;2023-03-13T13:16:47;5.55;;;1.23;;
43088;SDS011;28709;52.030;5.652;2023-03-13T13:24:52;7.18;;;1.20;;
43088;SDS011;28709;52.030;5.652;2023-03-13T13:27:44;4.70;;;1.05;;
43088;SDS011;28709;52.030;5.652;2023-03-13T13:32:52;6.40;;;1.40;;
43088;SDS011;28709;52.030;5.652;2023-03-13T13:43:46;2.55;;;0.88;;
43088;SDS011;28709;52.030;5.652;2023-03-13T13:51:30;4.25;;;1.13;;
43088;SDS011;28709;52.030;5.652;2023-03-13T13:54:01;7.35;;;1.77;;
43088;SDS011;28709;52.030;5.652;2023-03-13T13:56:37;7.32;;;1.50;;
43088;SDS011;28709;52.030;5.652;2023-03-13T13:59:38;11.07;;;2.25;;
43088;SDS011;28709;52.030;5.652;2023-03-13T14:07:04;7.50;;;1.77;;
43088;SDS011;28709;52.030;5.652;2023-03-13T14:17:46;12.63;;;2.13;;
43088;SDS011;28709;52.030;5.652;2023-03-13T14:22:57;14.13;;;2.28;;
43088;SDS011;28709;52.030;5.652;2023-03-13T14:25:26;10.35;;;2.08;;
43088;SDS011;28709;52.030;5.652;2023-03-13T14:27:54;11.88;;;2.45;;
43088;SDS011;28709;52.030;5.652;2023-03-13T14:30:20;7.97;;;2.08;;
43088;SDS011;28709;52.030;5.652;2023-03-13T14:32:47;8.85;;;1.80;;
43088;SDS011;28709;52.030;5.652;2023-03-13T14:35:15;8.95;;;2.17;;
43088;SDS011;28709;52.030;5.652;2023-03-13T14:37:45;10.93;;;2.60;;
43088;SDS011;28709;52.030;5.652;2023-03-13T14:40:19;10.38;;;2.10;;
43088;SDS011;28709;52.030;5.652;2023-03-13T14:42:54;16.40;;;2.92;;
43088;SDS011;28709;52.030;5.652;2023-03-13T14:45:26;10.02;;;2.53;;
43088;SDS011;28709;52.030;5.652;2023-03-13T14:47:55;13.77;;;2.92;;
43088;SDS011;28709;52.030;5.652;2023-03-13T14:50:29;12.52;;;2.80;;
43088;SDS011;28709;52.030;5.652;2023-03-13T14:53:00;11.32;;;2.60;;
43088;SDS011;28709;52.030;5.652;2023-03-13T14:55:33;16.85;;;2.65;;
43088;SDS011;28709;52.030;5.652;2023-03-13T14:58:01;14.80;;;2.50;;
43088;SDS011;28709;52.030;5.652;2023-03-13T15:00:33;14.70;;;3.25;;
43088;SDS011;28709;52.030;5.652;2023-03-13T15:05:42;15.10;;;2.60;;
43088;SDS011;28709;52.030;5.652;2023-03-13T15:08:18;11.88;;;2.15;;
43088;SDS011;28709;52.030;5.652;2023-03-13T15:10:45;10.02;;;2.22;;
43088;SDS011;28709;52.030;5.652;2023-03-13T15:13:33;12.32;;;2.42;;
43088;SDS011;28709;52.030;5.652;2023-03-13T15:16:00;13.95;;;2.97;;
43088;SDS011;28709;52.030;5.652;2023-03-13T15:18:31;18.80;;;2.80;;
43088;SDS011;28709;52.030;5.652;2023-03-13T15:23:48;15.75;;;2.78;;
43088;SDS011;28709;52.030;5.652;2023-03-13T15:26:16;8.18;;;2.08;;
43088;SDS011;28709;52.030;5.652;2023-03-13T15:28:42;11.63;;;3.03;;
43088;SDS011;28709;52.030;5.652;2023-03-13T15:31:09;19.23;;;3.47;;
43088;SDS011;28709;52.030;5.652;2023-03-13T15:33:38;15.30;;;2.30;;
43088;SDS011;28709;52.030;5.652;2023-03-13T15:36:05;11.90;;;3.10;;
43088;SDS011;28709;52.030;5.652;2023-03-13T15:38:31;15.52;;;2.80;;
43088;SDS011;28709;52.030;5.652;2023-03-13T15:40:56;13.18;;;2.88;;
43088;SDS011;28709;52.030;5.652;2023-03-13T15:43:22;21.17;;;3.45;;
43088;SDS011;28709;52.030;5.652;2023-03-13T15:45:48;13.68;;;2.97;;
43088;SDS011;28709;52.030;5.652;2023-03-13T15:48:19;13.10;;;2.60;;
43088;SDS011;28709;52.030;5.652;2023-03-13T15:50:49;19.80;;;3.08;;
43088;SDS011;28709;52.030;5.652;2023-03-13T15:53:21;18.17;;;3.47;;
43088;SDS011;28709;52.030;5.652;2023-03-13T15:55:48;11.98;;;2.83;;
43088;SDS011;28709;52.030;5.652;2023-03-13T15:58:16;16.55;;;2.97;;
43088;SDS011;28709;52.030;5.652;2023-03-13T16:00:42;13.35;;;3.20;;
43088;SDS011;28709;52.030;5.652;2023-03-13T16:03:14;15.10;;;2.63;;
43088;SDS011;28709;52.030;5.652;2023-03-13T16:05:42;20.10;;;3.47;;
43088;SDS011;28709;52.030;5.652;2023-03-13T16:08:15;14.30;;;2.92;;
43088;SDS011;28709;52.030;5.652;2023-03-13T16:10:50;16.63;;;3.15;;
43088;SDS011;28709;52.030;5.652;2023-03-13T16:13:17;21.73;;;3.58;;
43088;SDS011;28709;52.030;5.652;2023-03-13T16:15:43;19.48;;;3.45;;
43088;SDS011;28709;52.030;5.652;2023-03-13T16:18:15;13.95;;;3.40;;
43088;SDS011;28709;52.030;5.652;2023-03-13T16:20:45;17.77;;;3.42;;
43088;SDS011;28709;52.030;5.652;2023-03-13T16:23:11;12.13;;;2.72;;
43088;SDS011;28709;52.030;5.652;2023-03-13T16:25:37;14.20;;;2.45;;
43088;SDS011;28709;52.030;5.652;2023-03-13T16:28:03;13.02;;;2.67;;
43088;SDS011;28709;52.030;5.652;2023-03-13T16:30:31;20.90;;;3.25;;
43088;SDS011;28709;52.030;5.652;2023-03-13T16:32:58;14.95;;;2.97;;
43088;SDS011;28709;52.030;5.652;2023-03-13T16:35:24;15.75;;;3.22;;
43088;SDS011;28709;52.030;5.652;2023-03-13T16:37:51;17.27;;;2.85;;
43088;SDS011;28709;52.030;5.652;2023-03-13T16:40:24;16.92;;;2.70;;
43088;SDS011;28709;52.030;5.652;2023-03-13T16:42:53;13.52;;;2.25;;
43088;SDS011;28709;52.030;5.652;2023-03-13T16:45:19;14.40;;;2.95;;
43088;SDS011;28709;52.030;5.652;2023-03-13T16:47:45;12.10;;;2.78;;
43088;SDS011;28709;52.030;5.652;2023-03-13T16:52:46;16.15;;;3.50;;